createdAt,value
2023-05-18T00:05:24.925Z,5.10
2023-05-18T00:10:52.870Z,6.32
2023-05-18T00:16:18.966Z,6.78
2023-05-18T00:21:47.003Z,6.35
2023-05-18T00:27:13.941Z,5.28
2023-05-18T00:32:45.975Z,5.15
2023-05-18T00:38:14.992Z,4.78
2023-05-18T00:43:42.924Z,8.30
2023-05-18T00:49:09.259Z,6.85
2023-05-18T00:54:33.039Z,5.35
2023-05-18T01:00:00.932Z,4.57
2023-05-18T01:05:29.020Z,4.88
2023-05-18T01:10:55.997Z,6.78
2023-05-18T01:16:28.002Z,6.45
2023-05-18T01:22:05.963Z,5.15
2023-05-18T01:27:33.918Z,4.75
2023-05-18T01:32:59.113Z,7.65
2023-05-18T01:38:22.946Z,6.30
2023-05-18T01:43:57.932Z,6.03
2023-05-18T01:49:28.908Z,8.18
2023-05-18T01:54:55.942Z,4.63
2023-05-18T02:00:26.008Z,6.65
2023-05-18T02:05:50.962Z,6.32
2023-05-18T02:11:15.944Z,6.55
2023-05-18T02:16:44.989Z,3.85
2023-05-18T02:22:08.970Z,6.57
2023-05-18T02:27:34.943Z,7.28
2023-05-18T02:33:11.077Z,6.40
2023-05-18T02:38:35.958Z,6.40
2023-05-18T02:43:59.949Z,9.55
2023-05-18T02:49:28.001Z,9.13
2023-05-18T02:54:52.976Z,7.07
2023-05-18T03:00:35.965Z,6.65
2023-05-18T03:06:03.041Z,5.47
2023-05-18T03:11:27.968Z,6.85
2023-05-18T03:16:55.025Z,5.93
2023-05-18T03:22:23.095Z,5.95
2023-05-18T03:27:47.072Z,9.02
2023-05-18T03:33:13.019Z,9.18
2023-05-18T03:38:39.984Z,7.70
2023-05-18T03:44:06.014Z,6.18
2023-05-18T03:49:31.021Z,4.88
2023-05-18T03:54:59.040Z,5.43
2023-05-18T04:00:25.026Z,7.63
2023-05-18T04:05:50.991Z,7.40
2023-05-18T04:11:18.009Z,5.53
2023-05-18T04:16:43.032Z,5.95
2023-05-18T04:22:07.042Z,6.70
2023-05-18T04:27:36.014Z,7.95
2023-05-18T04:33:08.105Z,5.47
2023-05-18T04:38:33.006Z,8.10
2023-05-18T04:44:00.048Z,6.55
2023-05-18T04:49:28.998Z,7.75
2023-05-18T04:54:54.031Z,7.25
2023-05-18T05:00:23.024Z,7.18
2023-05-18T05:05:48.023Z,7.55
2023-05-18T05:11:14.040Z,6.38
2023-05-18T05:16:41.010Z,6.35
2023-05-18T05:22:06.051Z,7.05
2023-05-18T05:27:33.040Z,7.18
2023-05-18T05:33:07.069Z,5.70
2023-05-18T05:38:32.048Z,6.28
2023-05-18T05:44:04.062Z,6.63
2023-05-18T05:49:32.058Z,7.20
2023-05-18T05:54:59.097Z,7.72
2023-05-18T06:00:25.056Z,4.95
2023-05-18T06:05:55.106Z,4.55
2023-05-18T06:11:22.036Z,5.18
2023-05-18T06:16:46.149Z,5.65
2023-05-18T06:22:14.040Z,2.85
2023-05-18T06:27:59.118Z,6.90
2023-05-18T06:33:37.080Z,5.28
2023-05-18T06:39:05.066Z,6.37
2023-05-18T06:44:30.101Z,7.35
2023-05-18T06:50:05.116Z,5.30
2023-05-18T06:55:32.294Z,5.35
2023-05-18T07:00:57.080Z,5.63
2023-05-18T07:06:22.075Z,6.15
2023-05-18T07:11:52.103Z,6.22
2023-05-18T07:17:16.105Z,5.45
2023-05-18T07:22:48.088Z,6.18
2023-05-18T07:28:16.122Z,4.70
2023-05-18T07:33:41.131Z,5.70
2023-05-18T07:39:07.102Z,5.38
2023-05-18T07:44:34.133Z,4.95
2023-05-18T07:49:59.130Z,5.80
2023-05-18T07:55:24.128Z,5.57
2023-05-18T08:00:52.217Z,3.75
2023-05-18T08:06:16.104Z,5.47
2023-05-18T08:11:41.099Z,5.22
2023-05-18T08:17:09.197Z,8.55
2023-05-18T08:22:34.535Z,4.90
2023-05-18T08:27:59.153Z,4.20
2023-05-18T08:33:33.122Z,4.18
2023-05-18T08:39:00.151Z,3.85
2023-05-18T08:44:31.117Z,5.55
2023-05-18T08:50:01.114Z,5.20
2023-05-18T08:55:27.145Z,3.05
2023-05-18T09:00:52.128Z,4.22
2023-05-18T09:06:24.142Z,6.28
2023-05-18T09:11:49.124Z,3.10
2023-05-18T09:17:13.150Z,3.55
2023-05-18T09:22:42.166Z,4.40
2023-05-18T09:28:00.143Z,4.03
2023-05-18T09:33:34.318Z,4.88
2023-05-18T09:39:03.254Z,3.58
2023-05-18T09:44:27.202Z,4.43
2023-05-18T09:49:52.148Z,5.70
2023-05-18T09:55:21.238Z,4.10
2023-05-18T10:00:52.246Z,3.63
2023-05-18T10:06:20.391Z,5.75
2023-05-18T10:11:50.197Z,3.08
2023-05-18T10:17:16.728Z,3.80
2023-05-18T10:22:44.338Z,5.30
2023-05-18T10:28:13.173Z,4.18
2023-05-18T10:33:46.198Z,4.97
2023-05-18T10:39:13.197Z,6.38
2023-05-18T10:44:40.235Z,3.90
2023-05-18T10:50:08.244Z,4.20
2023-05-18T10:55:34.188Z,5.70
2023-05-18T11:01:04.224Z,4.13
2023-05-18T11:06:31.221Z,4.07
2023-05-18T11:12:03.219Z,4.40
2023-05-18T11:17:38.273Z,4.53
2023-05-18T11:23:13.251Z,3.20
2023-05-18T11:28:40.206Z,2.72
2023-05-18T11:34:08.238Z,3.47
2023-05-18T11:39:48.129Z,3.13
2023-05-18T11:45:18.266Z,3.83
2023-05-18T11:50:46.247Z,2.60
2023-05-18T11:56:11.289Z,2.83
2023-05-18T12:01:36.267Z,4.85
2023-05-18T12:07:06.234Z,2.50
2023-05-18T12:12:32.248Z,3.17
2023-05-18T12:17:59.338Z,3.10
2023-05-18T12:23:26.263Z,2.28
2023-05-18T12:28:51.417Z,2.88
2023-05-18T12:34:18.267Z,3.15
2023-05-18T12:39:46.255Z,2.75
2023-05-18T12:45:11.363Z,4.15
2023-05-18T12:50:36.299Z,2.75
2023-05-18T12:56:16.282Z,3.33
2023-05-18T13:01:51.328Z,4.30
2023-05-18T13:07:22.683Z,2.00
2023-05-18T13:12:58.422Z,2.72
2023-05-18T13:18:25.268Z,2.00
2023-05-18T13:23:51.716Z,4.93
2023-05-18T13:29:22.843Z,4.28
2023-05-18T13:34:49.319Z,4.72
2023-05-18T13:40:15.308Z,3.22
2023-05-18T13:45:44.398Z,2.70
2023-05-18T13:51:08.351Z,5.03
2023-05-18T13:56:34.383Z,5.70
2023-05-18T14:02:01.344Z,4.03
2023-05-18T14:07:26.340Z,2.83
2023-05-18T14:12:52.380Z,1.75
2023-05-18T14:18:21.351Z,3.17
2023-05-18T14:23:46.337Z,2.88
2023-05-18T14:29:11.323Z,4.82
2023-05-18T14:34:38.324Z,2.58
2023-05-18T14:40:03.385Z,3.00
2023-05-18T14:45:28.361Z,2.72
2023-05-18T14:50:56.563Z,4.28
2023-05-18T14:56:21.361Z,2.97
2023-05-18T15:01:46.422Z,3.92
2023-05-18T15:07:15.376Z,4.25
2023-05-18T15:12:40.341Z,3.03
2023-05-18T15:18:04.422Z,2.88
2023-05-18T15:23:33.355Z,5.47
2023-05-18T15:28:58.391Z,4.30
2023-05-18T15:34:29.375Z,2.15
2023-05-18T15:39:57.367Z,3.83
2023-05-18T15:45:24.524Z,2.55
2023-05-18T15:50:49.445Z,2.35
2023-05-18T15:56:17.419Z,2.13
2023-05-18T16:01:42.490Z,2.50
2023-05-18T16:07:06.397Z,2.60
2023-05-18T16:12:34.413Z,2.92
2023-05-18T16:18:00.083Z,4.68
2023-05-18T16:23:25.618Z,3.13
2023-05-18T16:28:53.428Z,2.80
2023-05-18T16:34:24.415Z,4.00
2023-05-18T16:39:49.414Z,2.92
2023-05-18T16:45:16.432Z,4.18
2023-05-18T16:50:42.417Z,2.85
2023-05-18T16:56:06.532Z,3.85
2023-05-18T17:01:34.468Z,3.70
2023-05-18T17:06:59.425Z,2.97
2023-05-18T17:12:24.433Z,4.35
2023-05-18T17:17:52.022Z,4.05
2023-05-18T17:23:20.042Z,2.85
2023-05-18T17:28:44.474Z,3.78
2023-05-18T17:34:18.479Z,4.40
2023-05-18T17:39:43.585Z,2.80
2023-05-18T17:45:08.448Z,2.72
2023-05-18T17:50:36.459Z,5.22
2023-05-18T17:56:00.447Z,3.63
2023-05-18T18:01:31.483Z,3.75
2023-05-18T18:07:08.362Z,2.85
2023-05-18T18:12:34.412Z,2.63
2023-05-18T18:17:59.469Z,2.50
2023-05-18T18:23:26.529Z,3.45
2023-05-18T18:28:51.481Z,3.80
2023-05-18T18:34:22.497Z,4.10
2023-05-18T18:39:50.524Z,5.90
2023-05-18T18:45:15.804Z,2.38
2023-05-18T18:50:40.471Z,4.30
2023-05-18T18:56:08.712Z,2.80
2023-05-18T19:01:33.522Z,2.08
2023-05-18T19:07:01.594Z,4.80
2023-05-18T19:12:29.549Z,3.22
2023-05-18T19:17:58.559Z,3.40
2023-05-18T19:23:23.534Z,3.67
2023-05-18T19:28:50.978Z,7.03
2023-05-18T19:34:21.519Z,3.05
2023-05-18T19:39:46.743Z,3.83
2023-05-18T19:45:13.544Z,2.75
2023-05-18T19:50:40.275Z,4.97
2023-05-18T19:56:05.523Z,3.63
2023-05-18T20:01:33.565Z,3.17
2023-05-18T20:06:59.548Z,3.70
2023-05-18T20:12:24.521Z,4.78
2023-05-18T20:17:52.581Z,5.45
2023-05-18T20:23:18.587Z,4.35
2023-05-18T20:28:42.643Z,4.25
2023-05-18T20:34:16.536Z,3.90
2023-05-18T20:39:41.774Z,3.13
2023-05-18T20:45:07.638Z,2.78
2023-05-18T20:50:35.700Z,3.50
2023-05-18T20:56:00.640Z,3.85
2023-05-18T21:01:27.592Z,3.35
2023-05-18T21:06:55.605Z,3.17
2023-05-18T21:12:20.590Z,3.30
2023-05-18T21:17:44.651Z,2.83
2023-05-18T21:23:12.840Z,4.32
2023-05-18T21:28:38.617Z,4.75
2023-05-18T21:34:11.908Z,3.90
2023-05-18T21:39:39.587Z,3.95
2023-05-18T21:45:04.894Z,4.00
2023-05-18T21:50:29.701Z,3.65
2023-05-18T21:55:56.631Z,5.65
2023-05-18T22:01:26.659Z,5.10
2023-05-18T22:06:57.606Z,4.38
2023-05-18T22:12:25.848Z,4.97
2023-05-18T22:17:52.667Z,5.30
2023-05-18T22:23:18.627Z,2.55
2023-05-18T22:28:45.632Z,4.50
2023-05-18T22:34:16.649Z,2.92
2023-05-18T22:39:41.623Z,5.55
2023-05-18T22:45:08.601Z,4.10
2023-05-18T22:50:33.949Z,3.58
2023-05-18T22:55:57.676Z,4.93
2023-05-18T23:01:26.023Z,3.78
2023-05-18T23:06:50.622Z,3.30
2023-05-18T23:12:17.697Z,3.75
2023-05-18T23:17:46.655Z,3.92
2023-05-18T23:23:11.643Z,7.35
2023-05-18T23:28:36.835Z,5.80
2023-05-18T23:34:11.668Z,2.83
2023-05-18T23:39:37.652Z,3.53
2023-05-18T23:45:03.655Z,7.13
2023-05-18T23:50:32.865Z,5.10
2023-05-18T23:55:58.726Z,4.78
